createdAt,value
2017-12-14T00:00:22.680Z,4.00
2017-12-14T00:01:22.663Z,4.00
2017-12-14T00:02:22.631Z,4.00
2017-12-14T00:03:22.670Z,4.00
2017-12-14T00:04:22.584Z,4.00
2017-12-14T00:05:22.560Z,4.00
2017-12-14T00:06:22.541Z,4.00
2017-12-14T00:07:22.519Z,4.00
2017-12-14T00:08:22.498Z,4.00
2017-12-14T00:09:22.468Z,4.00
2017-12-14T00:10:22.447Z,4.00
2017-12-14T00:11:22.425Z,4.00
2017-12-14T00:12:22.404Z,4.00
2017-12-14T00:13:22.383Z,4.00
2017-12-14T00:14:22.353Z,4.00
2017-12-14T00:15:22.330Z,4.00
2017-12-14T00:16:22.375Z,4.00
2017-12-14T00:17:22.290Z,4.00
2017-12-14T00:18:22.267Z,4.00
2017-12-14T00:19:22.352Z,4.00
2017-12-14T00:20:22.219Z,4.00
2017-12-14T00:21:22.199Z,4.00
2017-12-14T00:22:22.285Z,4.00
2017-12-14T00:23:22.140Z,4.00
2017-12-14T00:24:22.118Z,4.00
2017-12-14T00:25:22.095Z,4.00
2017-12-14T00:26:22.075Z,4.00
2017-12-14T00:27:22.053Z,4.00
2017-12-14T00:28:22.025Z,4.00
2017-12-14T00:30:21.980Z,4.00
2017-12-14T00:31:21.966Z,4.00
2017-12-14T00:32:21.935Z,4.00
2017-12-14T00:33:21.911Z,4.00
2017-12-14T00:34:21.888Z,4.00
2017-12-14T00:35:21.867Z,4.00
2017-12-14T00:36:21.840Z,4.00
2017-12-14T00:37:21.818Z,4.00
2017-12-14T00:38:21.795Z,4.00
2017-12-14T00:39:21.777Z,8.00
2017-12-14T00:40:21.746Z,4.00
2017-12-14T00:41:21.740Z,4.00
2017-12-14T00:42:21.707Z,8.00
2017-12-14T00:43:21.679Z,8.00
2017-12-14T00:44:21.653Z,8.00
2017-12-14T00:45:21.632Z,8.00
2017-12-14T00:46:21.609Z,8.00
2017-12-14T00:47:21.586Z,8.00
2017-12-14T00:48:21.563Z,8.00
2017-12-14T00:49:21.538Z,8.00
2017-12-14T00:50:21.515Z,8.00
2017-12-14T00:51:21.493Z,8.00
2017-12-14T00:52:21.479Z,8.00
2017-12-14T00:53:21.449Z,8.00
2017-12-14T00:54:21.422Z,8.00
2017-12-14T00:55:21.450Z,8.00
2017-12-14T00:56:21.382Z,8.00
2017-12-14T00:57:21.351Z,8.00
2017-12-14T00:58:21.337Z,8.00
2017-12-14T00:59:21.307Z,8.00
2017-12-14T01:00:21.288Z,8.00
2017-12-14T01:01:21.261Z,4.00
2017-12-14T01:02:21.235Z,8.00
2017-12-14T01:03:21.212Z,4.00
2017-12-14T01:04:21.189Z,8.00
2017-12-14T01:05:21.173Z,4.00
2017-12-14T01:06:21.139Z,4.00
2017-12-14T01:07:21.120Z,4.00
2017-12-14T01:08:21.095Z,4.00
2017-12-14T01:09:21.080Z,4.00
2017-12-14T01:10:21.056Z,4.00
2017-12-14T01:11:21.036Z,4.00
2017-12-14T01:12:21.004Z,4.00
2017-12-14T01:13:20.997Z,4.00
2017-12-14T01:14:20.966Z,4.00
2017-12-14T01:15:20.941Z,4.00
2017-12-14T01:16:20.911Z,4.00
2017-12-14T01:17:20.983Z,4.00
2017-12-14T01:18:20.862Z,4.00
2017-12-14T01:19:20.846Z,4.00
2017-12-14T01:20:20.848Z,4.00
2017-12-14T01:21:20.792Z,4.00
2017-12-14T01:22:20.769Z,4.00
2017-12-14T01:23:20.799Z,4.00
2017-12-14T01:24:20.721Z,4.00
2017-12-14T01:25:20.860Z,4.00
2017-12-14T01:26:20.682Z,4.00
2017-12-14T01:27:20.655Z,8.00
2017-12-14T01:28:20.640Z,4.00
2017-12-14T01:29:20.608Z,4.00
2017-12-14T01:30:20.587Z,4.00
2017-12-14T01:31:20.560Z,4.00
2017-12-14T01:32:20.549Z,0.00
2017-12-14T01:33:20.516Z,4.00
2017-12-14T01:34:20.491Z,8.00
2017-12-14T01:35:20.468Z,8.00
2017-12-14T01:36:20.446Z,8.00
2017-12-14T01:37:20.421Z,8.00
2017-12-14T01:38:20.399Z,8.00
2017-12-14T01:39:20.385Z,0.00
2017-12-14T01:40:20.350Z,4.00
2017-12-14T01:41:20.331Z,4.00
2017-12-14T01:42:20.306Z,4.00
2017-12-14T01:43:20.289Z,4.00
2017-12-14T01:44:20.256Z,4.00
2017-12-14T01:45:20.234Z,4.00
2017-12-14T01:46:20.214Z,4.00
2017-12-14T01:47:20.193Z,4.00
2017-12-14T01:48:20.172Z,4.00
2017-12-14T01:49:20.144Z,4.00
2017-12-14T01:50:20.222Z,4.00
2017-12-14T01:51:20.106Z,4.00
2017-12-14T01:52:20.073Z,4.00
2017-12-14T01:53:20.057Z,4.00
2017-12-14T01:54:20.083Z,4.00
2017-12-14T01:55:20.005Z,4.00
2017-12-14T01:56:19.983Z,4.00
2017-12-14T01:57:19.964Z,4.00
2017-12-14T01:58:19.934Z,4.00
2017-12-14T01:59:19.911Z,4.00
2017-12-14T02:00:19.891Z,4.00
2017-12-14T02:01:19.864Z,4.00
2017-12-14T02:02:19.844Z,4.00
2017-12-14T02:03:19.821Z,4.00
2017-12-14T02:04:19.796Z,4.00
2017-12-14T02:05:19.773Z,4.00
2017-12-14T02:06:19.751Z,4.00
2017-12-14T02:07:19.730Z,4.00
2017-12-14T02:08:19.702Z,4.00
2017-12-14T02:09:19.688Z,4.00
2017-12-14T02:10:19.660Z,4.00
2017-12-14T02:11:19.635Z,4.00
2017-12-14T02:12:19.611Z,4.00
2017-12-14T02:13:19.590Z,4.00
2017-12-14T02:14:19.570Z,4.00
2017-12-14T02:15:19.544Z,4.00
2017-12-14T02:16:19.521Z,4.00
2017-12-14T02:17:19.499Z,4.00
2017-12-14T02:18:19.474Z,4.00
2017-12-14T02:19:19.450Z,4.00
2017-12-14T02:20:19.429Z,4.00
2017-12-14T02:21:19.410Z,4.00
2017-12-14T02:22:19.384Z,4.00
2017-12-14T02:23:19.413Z,4.00
2017-12-14T02:24:19.340Z,4.00
2017-12-14T02:25:19.313Z,4.00
2017-12-14T02:26:19.348Z,4.00
2017-12-14T02:27:19.268Z,4.00
2017-12-14T02:28:19.245Z,4.00
2017-12-14T02:29:19.220Z,4.00
2017-12-14T02:30:19.198Z,4.00
2017-12-14T02:31:19.179Z,4.00
2017-12-14T02:32:19.151Z,4.00
2017-12-14T02:33:19.129Z,4.00
2017-12-14T02:34:19.107Z,4.00
2017-12-14T02:35:19.088Z,4.00
2017-12-14T02:36:19.059Z,4.00
2017-12-14T02:37:19.037Z,4.00
2017-12-14T02:38:19.017Z,4.00
2017-12-14T02:39:18.991Z,4.00
2017-12-14T02:40:18.979Z,4.00
2017-12-14T02:41:18.946Z,4.00
2017-12-14T02:42:18.924Z,4.00
2017-12-14T02:43:18.898Z,4.00
2017-12-14T02:44:18.876Z,4.00
2017-12-14T02:45:18.870Z,4.00
2017-12-14T02:46:18.829Z,4.00
2017-12-14T02:47:18.804Z,4.00
2017-12-14T02:48:18.859Z,4.00
2017-12-14T02:49:18.759Z,4.00
2017-12-14T02:50:18.744Z,4.00
2017-12-14T02:51:18.715Z,4.00
2017-12-14T02:52:18.689Z,4.00
2017-12-14T02:53:18.668Z,4.00
2017-12-14T02:54:18.646Z,4.00
2017-12-14T02:55:18.624Z,4.00
2017-12-14T02:56:18.599Z,4.00
2017-12-14T02:57:18.577Z,4.00
2017-12-14T02:58:18.554Z,4.00
2017-12-14T02:59:18.533Z,4.00
2017-12-14T03:00:18.505Z,4.00
2017-12-14T03:01:18.491Z,4.00
2017-12-14T03:02:18.462Z,4.00
2017-12-14T03:03:18.438Z,4.00
2017-12-14T03:04:18.412Z,4.00
2017-12-14T03:05:18.392Z,4.00
2017-12-14T03:06:18.366Z,4.00
2017-12-14T03:07:18.351Z,4.00
2017-12-14T03:08:18.320Z,4.00
2017-12-14T03:09:18.301Z,4.00
2017-12-14T03:10:18.277Z,4.00
2017-12-14T03:11:18.253Z,4.00
2017-12-14T03:12:18.232Z,4.00
2017-12-14T03:13:18.206Z,4.00
2017-12-14T03:14:18.184Z,4.00
2017-12-14T03:15:18.168Z,4.00
2017-12-14T03:16:18.157Z,4.00
2017-12-14T03:17:18.112Z,4.00
2017-12-14T03:18:18.249Z,4.00
2017-12-14T03:19:18.070Z,4.00
2017-12-14T03:20:18.052Z,4.00
2017-12-14T03:21:18.028Z,4.00
2017-12-14T03:22:17.999Z,4.00
2017-12-14T03:23:17.974Z,4.00
2017-12-14T03:24:17.965Z,4.00
2017-12-14T03:25:17.930Z,4.00
2017-12-14T03:26:17.907Z,4.00
2017-12-14T03:27:17.881Z,4.00
2017-12-14T03:28:17.859Z,4.00
2017-12-14T03:29:17.886Z,4.00
2017-12-14T03:30:17.826Z,4.00
2017-12-14T03:31:17.793Z,4.00
2017-12-14T03:32:17.768Z,4.00
2017-12-14T03:33:17.744Z,4.00
2017-12-14T03:34:17.719Z,4.00
2017-12-14T03:35:17.696Z,4.00
2017-12-14T03:36:17.674Z,4.00
2017-12-14T03:37:17.651Z,4.00
2017-12-14T03:38:17.634Z,4.00
2017-12-14T03:39:17.623Z,4.00
2017-12-14T03:40:17.581Z,4.00
2017-12-14T03:41:17.559Z,4.00
2017-12-14T03:42:17.536Z,4.00
2017-12-14T03:43:17.533Z,4.00
2017-12-14T03:44:17.497Z,4.00
2017-12-14T03:45:17.467Z,4.00
2017-12-14T03:46:17.456Z,4.00
2017-12-14T03:47:17.420Z,4.00
2017-12-14T03:48:17.399Z,4.00
2017-12-14T03:49:17.376Z,4.00
2017-12-14T03:50:17.351Z,4.00
2017-12-14T03:51:17.328Z,4.00
2017-12-14T03:52:17.305Z,4.00
2017-12-14T03:53:17.284Z,4.00
2017-12-14T03:54:17.365Z,4.00
2017-12-14T03:55:17.243Z,4.00
2017-12-14T03:56:17.214Z,4.00
2017-12-14T03:57:17.231Z,4.00
2017-12-14T03:58:17.168Z,4.00
2017-12-14T03:59:17.144Z,4.00
2017-12-14T04:00:17.124Z,4.00
2017-12-14T04:01:17.099Z,4.00
2017-12-14T04:02:17.074Z,4.00
2017-12-14T04:03:17.055Z,4.00
2017-12-14T04:04:17.029Z,4.00
2017-12-14T04:05:17.008Z,4.00
2017-12-14T04:06:16.984Z,4.00
2017-12-14T04:07:16.972Z,4.00
2017-12-14T04:08:16.938Z,4.00
2017-12-14T04:09:16.924Z,4.00
2017-12-14T04:10:16.895Z,4.00
2017-12-14T04:11:16.868Z,4.00
2017-12-14T04:12:16.842Z,4.00
2017-12-14T04:13:16.841Z,4.00
2017-12-14T04:14:16.803Z,4.00
2017-12-14T04:15:16.777Z,4.00
2017-12-14T04:16:16.769Z,4.00
2017-12-14T04:17:16.732Z,4.00
2017-12-14T04:18:16.709Z,4.00
2017-12-14T04:19:16.727Z,4.00
2017-12-14T04:20:16.661Z,4.00
2017-12-14T04:21:16.635Z,4.00
2017-12-14T04:22:16.622Z,4.00
2017-12-14T04:23:16.591Z,4.00
2017-12-14T04:24:16.574Z,4.00
2017-12-14T04:25:16.547Z,4.00
2017-12-14T04:26:16.523Z,4.00
2017-12-14T04:27:16.500Z,4.00
2017-12-14T04:28:16.481Z,4.00
2017-12-14T04:29:16.455Z,4.00
2017-12-14T04:30:16.435Z,4.00
2017-12-14T04:31:16.410Z,4.00
2017-12-14T04:32:16.384Z,4.00
2017-12-14T04:33:16.364Z,4.00
2017-12-14T04:34:16.340Z,4.00
2017-12-14T04:35:16.319Z,4.00
2017-12-14T04:36:16.296Z,4.00
2017-12-14T04:37:16.269Z,4.00
2017-12-14T04:38:16.249Z,4.00
2017-12-14T04:39:16.227Z,4.00
2017-12-14T04:40:16.203Z,4.00
2017-12-14T04:41:16.180Z,4.00
2017-12-14T04:42:16.155Z,4.00
2017-12-14T04:43:16.133Z,4.00
2017-12-14T04:44:16.108Z,4.00
2017-12-14T04:45:16.087Z,4.00
2017-12-14T04:46:16.063Z,4.00
2017-12-14T04:47:16.044Z,4.00
2017-12-14T04:48:16.017Z,4.00
2017-12-14T04:49:16.132Z,4.00
2017-12-14T04:50:15.970Z,4.00
2017-12-14T04:51:15.947Z,4.00
2017-12-14T04:52:16.046Z,4.00
2017-12-14T04:53:15.906Z,4.00
2017-12-14T04:54:15.878Z,4.00
2017-12-14T04:55:15.873Z,4.00
2017-12-14T04:56:15.833Z,4.00
2017-12-14T04:57:15.813Z,4.00
2017-12-14T04:58:15.787Z,4.00
2017-12-14T04:59:15.762Z,4.00
2017-12-14T05:00:15.736Z,4.00
2017-12-14T05:01:15.717Z,4.00
2017-12-14T05:02:15.692Z,4.00
2017-12-14T05:03:15.672Z,4.00
2017-12-14T05:04:15.646Z,4.00
2017-12-14T05:05:15.626Z,4.00
2017-12-14T05:06:15.608Z,4.00
2017-12-14T05:07:15.576Z,4.00
2017-12-14T05:08:15.556Z,4.00
2017-12-14T05:09:15.528Z,4.00
2017-12-14T05:10:15.504Z,4.00
2017-12-14T05:11:15.484Z,4.00
2017-12-14T05:12:15.457Z,4.00
2017-12-14T05:13:15.443Z,4.00
2017-12-14T05:14:15.538Z,4.00
2017-12-14T05:15:15.389Z,4.00
2017-12-14T05:16:15.364Z,4.00
2017-12-14T05:17:15.447Z,4.00
2017-12-14T05:18:15.326Z,4.00
2017-12-14T05:19:15.293Z,4.00
2017-12-14T05:20:15.323Z,4.00
2017-12-14T05:21:15.268Z,4.00
2017-12-14T05:22:15.223Z,4.00
2017-12-14T05:23:15.205Z,4.00
2017-12-14T05:24:15.183Z,4.00
2017-12-14T05:25:15.160Z,4.00
2017-12-14T05:26:15.131Z,4.00
2017-12-14T05:27:15.104Z,4.00
2017-12-14T05:28:15.089Z,4.00
2017-12-14T05:29:15.057Z,4.00
2017-12-14T05:30:15.034Z,4.00
2017-12-14T05:31:15.016Z,4.00
2017-12-14T05:32:14.987Z,4.00
2017-12-14T05:33:14.964Z,4.00
2017-12-14T05:34:14.943Z,4.00
2017-12-14T05:35:14.922Z,4.00
2017-12-14T05:36:14.892Z,4.00
2017-12-14T05:37:14.870Z,4.00
2017-12-14T05:38:14.859Z,4.00
2017-12-14T05:39:14.822Z,4.00
2017-12-14T05:40:14.800Z,4.00
2017-12-14T05:41:14.776Z,4.00
2017-12-14T05:42:14.752Z,4.00
2017-12-14T05:43:14.730Z,4.00
2017-12-14T05:44:14.707Z,4.00
2017-12-14T05:45:14.688Z,4.00
2017-12-14T05:46:14.665Z,4.00
2017-12-14T05:47:14.772Z,4.00
2017-12-14T05:48:14.612Z,4.00
2017-12-14T05:49:14.590Z,4.00
2017-12-14T05:50:14.584Z,4.00
2017-12-14T05:51:14.542Z,4.00
2017-12-14T05:52:14.519Z,4.00
2017-12-14T05:53:14.500Z,4.00
2017-12-14T05:54:14.471Z,4.00
2017-12-14T05:55:14.448Z,4.00
2017-12-14T05:56:14.427Z,4.00
2017-12-14T05:57:14.404Z,4.00
2017-12-14T05:58:14.416Z,4.00
2017-12-14T05:59:14.353Z,4.00
2017-12-14T06:00:14.329Z,4.00
2017-12-14T06:01:14.307Z,4.00
2017-12-14T06:02:14.282Z,4.00
2017-12-14T06:03:14.262Z,4.00
2017-12-14T06:04:14.233Z,4.00
2017-12-14T06:05:14.210Z,4.00
2017-12-14T06:06:14.188Z,4.00
2017-12-14T06:07:14.161Z,0.00
2017-12-14T06:08:14.138Z,4.00
2017-12-14T06:09:14.120Z,0.00
2017-12-14T06:10:14.093Z,0.00
2017-12-14T06:11:14.069Z,0.00
2017-12-14T06:12:14.114Z,4.00
2017-12-14T06:13:14.028Z,0.00
2017-12-14T06:14:13.995Z,4.00
2017-12-14T06:15:13.977Z,0.00
2017-12-14T06:16:13.957Z,0.00
2017-12-14T06:17:13.932Z,4.00
2017-12-14T06:18:13.901Z,4.00
2017-12-14T06:19:13.885Z,0.00
2017-12-14T06:20:13.854Z,4.00
2017-12-14T06:21:13.829Z,0.00
2017-12-14T06:22:13.806Z,0.00
2017-12-14T06:23:13.821Z,0.00
2017-12-14T06:24:13.758Z,0.00
2017-12-14T06:25:13.735Z,0.00
2017-12-14T06:26:13.725Z,0.00
2017-12-14T06:27:13.685Z,4.00
2017-12-14T06:28:13.679Z,4.00
2017-12-14T06:29:13.642Z,4.00
2017-12-14T06:30:13.620Z,4.00
2017-12-14T06:31:13.592Z,4.00
2017-12-14T06:32:13.569Z,4.00
2017-12-14T06:33:13.546Z,0.00
2017-12-14T06:34:13.533Z,4.00
2017-12-14T06:35:13.506Z,4.00
2017-12-14T06:36:13.473Z,4.00
2017-12-14T06:37:13.454Z,4.00
2017-12-14T06:38:13.443Z,4.00
2017-12-14T06:39:13.403Z,4.00
2017-12-14T06:40:13.376Z,4.00
2017-12-14T06:41:13.354Z,4.00
2017-12-14T06:42:13.331Z,4.00
2017-12-14T06:43:13.307Z,4.00
2017-12-14T06:44:13.283Z,4.00
2017-12-14T06:45:13.260Z,4.00
2017-12-14T06:46:13.235Z,4.00
2017-12-14T06:47:13.211Z,4.00
2017-12-14T06:48:13.206Z,4.00
2017-12-14T06:49:13.161Z,4.00
2017-12-14T06:50:13.141Z,4.00
2017-12-14T06:51:13.238Z,4.00
2017-12-14T06:52:13.090Z,4.00
2017-12-14T06:53:13.063Z,4.00
2017-12-14T06:54:13.042Z,4.00
2017-12-14T06:55:13.029Z,0.00
2017-12-14T06:56:12.999Z,4.00
2017-12-14T06:57:12.969Z,4.00
2017-12-14T06:58:12.941Z,0.00
2017-12-14T06:59:12.919Z,4.00
2017-12-14T07:00:12.894Z,4.00
2017-12-14T07:01:12.887Z,4.00
2017-12-14T07:02:12.848Z,4.00
2017-12-14T07:03:12.837Z,8.00
2017-12-14T07:04:12.798Z,4.00
2017-12-14T07:05:12.779Z,4.00
2017-12-14T07:06:12.748Z,8.00
2017-12-14T07:07:12.728Z,8.00
2017-12-14T07:08:12.701Z,4.00
2017-12-14T07:09:12.677Z,8.00
2017-12-14T07:10:12.651Z,12.00
2017-12-14T07:11:12.628Z,12.00
2017-12-14T07:12:12.609Z,12.00
2017-12-14T07:13:12.578Z,16.00
2017-12-14T07:14:12.556Z,16.00
2017-12-14T07:15:12.529Z,20.00
2017-12-14T07:16:12.507Z,24.00
2017-12-14T07:17:12.483Z,28.00
2017-12-14T07:18:12.455Z,16.00
2017-12-14T07:19:12.431Z,20.00
2017-12-14T07:20:12.426Z,16.00
2017-12-14T07:21:12.406Z,16.00
2017-12-14T07:22:12.365Z,24.00
2017-12-14T07:23:12.335Z,24.00
2017-12-14T07:24:12.323Z,28.00
2017-12-14T07:25:12.293Z,28.00
2017-12-14T07:26:12.261Z,36.00
2017-12-14T07:27:12.261Z,44.00
2017-12-14T07:28:12.214Z,56.00
2017-12-14T07:29:12.195Z,64.00
2017-12-14T07:30:12.165Z,88.00
2017-12-14T07:31:12.139Z,108.00
2017-12-14T07:32:12.115Z,144.00
2017-12-14T07:33:12.087Z,188.00
2017-12-14T07:34:12.064Z,172.00
2017-12-14T07:35:12.040Z,180.00
2017-12-14T07:36:12.022Z,204.00
2017-12-14T07:37:11.989Z,216.00
2017-12-14T07:38:11.966Z,296.00
2017-12-14T07:39:11.947Z,308.00
2017-12-14T07:40:11.915Z,304.00
2017-12-14T07:41:11.893Z,296.00
2017-12-14T07:42:11.868Z,264.00
2017-12-14T07:43:11.875Z,244.00
2017-12-14T07:44:11.834Z,240.00
2017-12-14T07:45:11.792Z,192.00
2017-12-14T07:46:11.902Z,148.00
2017-12-14T07:47:11.747Z,192.00
2017-12-14T07:48:11.716Z,148.00
2017-12-14T07:49:11.802Z,120.00
2017-12-14T07:50:11.676Z,124.00
2017-12-14T07:51:11.645Z,84.00
2017-12-14T07:52:11.622Z,96.00
2017-12-14T07:53:11.596Z,124.00
2017-12-14T07:54:11.575Z,144.00
2017-12-14T07:55:11.558Z,132.00
2017-12-14T07:56:11.524Z,128.00
2017-12-14T07:57:11.515Z,164.00
2017-12-14T07:58:11.473Z,172.00
2017-12-14T07:59:11.451Z,296.00
2017-12-14T08:00:11.435Z,396.00
2017-12-14T08:01:11.418Z,516.00
2017-12-14T08:02:11.385Z,540.00
2017-12-14T08:03:11.359Z,492.00
2017-12-14T08:04:11.330Z,492.00
2017-12-14T08:05:11.308Z,488.00
2017-12-14T08:06:11.278Z,604.00
2017-12-14T08:07:11.259Z,480.00
2017-12-14T08:08:11.229Z,424.00
2017-12-14T08:09:11.207Z,460.00
2017-12-14T08:10:11.184Z,404.00
2017-12-14T08:11:11.158Z,412.00
2017-12-14T08:12:11.137Z,492.00
2017-12-14T08:13:11.114Z,484.00
2017-12-14T08:14:11.097Z,632.00
2017-12-14T08:15:11.063Z,584.00
2017-12-14T08:16:11.039Z,660.00
2017-12-14T08:17:11.015Z,616.00
2017-12-14T08:18:10.994Z,640.00
2017-12-14T08:19:10.969Z,644.00
2017-12-14T08:20:10.951Z,712.00
2017-12-14T08:21:10.920Z,736.00
2017-12-14T08:22:10.912Z,932.00
2017-12-14T08:23:10.889Z,992.00
2017-12-14T08:24:10.847Z,1100.00
2017-12-14T08:25:10.836Z,1668.00
2017-12-14T08:26:10.801Z,2172.00
2017-12-14T08:27:10.778Z,2436.00
2017-12-14T08:28:10.810Z,2400.00
2017-12-14T08:29:10.729Z,2612.00
2017-12-14T08:30:10.706Z,2580.00
2017-12-14T08:31:10.679Z,2424.00
2017-12-14T08:32:10.666Z,2052.00
2017-12-14T08:33:10.630Z,1728.00
2017-12-14T08:34:10.613Z,1940.00
2017-12-14T08:35:10.584Z,1552.00
2017-12-14T08:36:10.560Z,1136.00
2017-12-14T08:37:10.560Z,1532.00
2017-12-14T08:38:10.514Z,1264.00
2017-12-14T08:39:10.515Z,1392.00
2017-12-14T08:40:10.474Z,1208.00
2017-12-14T08:41:10.444Z,1224.00
2017-12-14T08:42:10.420Z,1416.00
2017-12-14T08:43:10.394Z,1856.00
2017-12-14T08:44:10.376Z,1664.00
2017-12-14T08:45:10.348Z,1616.00
2017-12-14T08:46:10.324Z,1852.00
2017-12-14T08:47:10.304Z,1688.00
2017-12-14T08:48:10.276Z,1972.00
2017-12-14T08:49:10.254Z,1976.00
2017-12-14T08:50:10.232Z,2156.00
2017-12-14T08:51:10.215Z,2644.00
2017-12-14T08:52:10.183Z,2060.00
2017-12-14T08:53:10.157Z,1728.00
2017-12-14T08:54:10.145Z,1404.00
2017-12-14T08:55:10.149Z,1444.00
2017-12-14T08:56:10.086Z,1580.00
2017-12-14T08:57:10.069Z,1820.00
2017-12-14T08:58:10.103Z,1732.00
2017-12-14T08:59:10.023Z,2052.00
2017-12-14T09:00:09.994Z,2744.00
2017-12-14T09:01:10.133Z,1564.00
2017-12-14T09:02:09.950Z,1592.00
2017-12-14T09:03:09.926Z,2216.00
2017-12-14T09:04:09.904Z,2236.00
2017-12-14T09:05:09.890Z,3464.00
2017-12-14T09:06:09.856Z,4312.00
2017-12-14T09:07:09.833Z,3488.00
2017-12-14T09:08:09.810Z,4184.00
2017-12-14T09:09:09.793Z,4808.00
2017-12-14T09:10:09.762Z,5576.00
2017-12-14T09:11:09.744Z,4568.00
2017-12-14T09:12:09.721Z,5536.00
2017-12-14T09:13:09.702Z,6000.00
2017-12-14T09:14:09.673Z,5220.00
2017-12-14T09:15:09.649Z,4468.00
2017-12-14T09:16:09.633Z,4996.00
2017-12-14T09:17:09.609Z,5416.00
2017-12-14T09:18:09.583Z,4792.00
2017-12-14T09:19:09.562Z,4004.00
2017-12-14T09:20:09.542Z,3832.00
2017-12-14T09:21:09.513Z,3532.00
2017-12-14T09:22:09.491Z,3676.00
2017-12-14T09:23:09.547Z,4988.00
2017-12-14T09:24:09.442Z,6168.00
2017-12-14T09:25:09.423Z,6296.00
2017-12-14T09:26:09.401Z,6540.00
2017-12-14T09:27:09.378Z,5588.00
2017-12-14T09:28:09.353Z,5468.00
2017-12-14T09:29:09.330Z,4520.00
2017-12-14T09:30:09.314Z,3440.00
2017-12-14T09:31:09.305Z,3364.00
2017-12-14T09:32:09.268Z,3084.00
2017-12-14T09:33:09.249Z,3156.00
2017-12-14T09:34:09.222Z,4872.00
2017-12-14T09:35:09.197Z,5192.00
2017-12-14T09:36:09.177Z,3912.00
2017-12-14T09:37:09.156Z,4660.00
2017-12-14T09:38:09.130Z,3768.00
2017-12-14T09:39:09.105Z,3672.00
2017-12-14T09:40:09.086Z,3192.00
2017-12-14T09:41:09.075Z,2060.00
2017-12-14T09:42:09.038Z,1780.00
2017-12-14T09:43:09.018Z,1776.00
2017-12-14T09:44:08.995Z,1712.00
2017-12-14T09:45:08.975Z,1880.00
2017-12-14T09:46:08.950Z,1728.00
2017-12-14T09:47:08.929Z,1432.00
2017-12-14T09:48:08.905Z,1292.00
2017-12-14T09:49:08.884Z,1140.00
2017-12-14T09:50:08.864Z,1224.00
2017-12-14T09:51:08.836Z,1556.00
2017-12-14T09:52:08.814Z,1528.00
2017-12-14T09:53:08.901Z,1340.00
2017-12-14T09:54:08.770Z,1716.00
2017-12-14T09:55:08.749Z,1728.00
2017-12-14T09:56:08.744Z,1672.00
2017-12-14T09:57:08.705Z,1664.00
2017-12-14T09:58:08.694Z,1720.00
2017-12-14T09:59:08.668Z,1508.00
2017-12-14T10:00:08.635Z,2044.00
2017-12-14T10:01:08.616Z,2180.00
2017-12-14T10:02:08.594Z,2556.00
2017-12-14T10:03:08.573Z,2516.00
2017-12-14T10:04:08.546Z,1984.00
2017-12-14T10:05:08.526Z,1900.00
2017-12-14T10:06:08.504Z,1772.00
2017-12-14T10:07:08.486Z,1360.00
2017-12-14T10:08:08.456Z,1452.00
2017-12-14T10:09:08.433Z,1372.00
2017-12-14T10:10:08.414Z,1820.00
2017-12-14T10:11:08.391Z,2088.00
2017-12-14T10:12:08.363Z,2144.00
2017-12-14T10:13:08.343Z,2088.00
2017-12-14T10:14:08.328Z,1676.00
2017-12-14T10:15:08.296Z,1600.00
2017-12-14T10:16:08.275Z,1648.00
2017-12-14T10:17:08.251Z,1704.00
2017-12-14T10:18:08.233Z,1192.00
2017-12-14T10:19:08.214Z,1288.00
2017-12-14T10:20:08.183Z,1232.00
2017-12-14T10:21:08.162Z,1188.00
2017-12-14T10:22:08.151Z,1056.00
2017-12-14T10:23:08.122Z,860.00
2017-12-14T10:24:08.093Z,888.00
2017-12-14T10:25:08.071Z,1008.00
2017-12-14T10:26:08.059Z,944.00
2017-12-14T10:27:08.029Z,916.00
2017-12-14T10:28:08.000Z,724.00
2017-12-14T10:29:07.994Z,1096.00
2017-12-14T10:30:07.954Z,928.00
2017-12-14T10:31:07.932Z,1100.00
2017-12-14T10:32:07.911Z,1512.00
2017-12-14T10:33:07.889Z,1368.00
2017-12-14T10:34:07.864Z,1240.00
2017-12-14T10:35:07.840Z,1196.00
2017-12-14T10:36:07.819Z,1624.00
2017-12-14T10:37:07.800Z,1184.00
2017-12-14T10:38:07.777Z,2160.00
2017-12-14T10:39:07.749Z,1640.00
2017-12-14T10:40:07.729Z,1544.00
2017-12-14T10:41:07.706Z,1408.00
2017-12-14T10:42:07.680Z,1376.00
2017-12-14T10:43:07.656Z,1916.00
2017-12-14T10:44:07.640Z,1688.00
2017-12-14T10:45:07.613Z,1264.00
2017-12-14T10:46:07.587Z,1656.00
2017-12-14T10:47:07.566Z,1124.00
2017-12-14T10:48:07.560Z,1016.00
2017-12-14T10:49:07.521Z,1036.00
2017-12-14T10:50:07.497Z,1264.00
2017-12-14T10:51:07.498Z,872.00
2017-12-14T10:52:07.452Z,812.00
2017-12-14T10:53:07.434Z,624.00
2017-12-14T10:54:07.437Z,612.00
2017-12-14T10:55:07.381Z,672.00
2017-12-14T10:56:07.362Z,692.00
2017-12-14T10:57:07.339Z,896.00
2017-12-14T10:58:07.320Z,948.00
2017-12-14T10:59:07.291Z,1064.00
2017-12-14T11:00:07.266Z,1040.00
2017-12-14T11:01:07.240Z,708.00
2017-12-14T11:02:07.218Z,584.00
2017-12-14T11:03:07.199Z,552.00
2017-12-14T11:04:07.171Z,500.00
2017-12-14T11:05:07.148Z,576.00
2017-12-14T11:06:07.130Z,660.00
2017-12-14T11:07:07.104Z,644.00
2017-12-14T11:08:07.076Z,704.00
2017-12-14T11:09:07.061Z,744.00
2017-12-14T11:10:07.033Z,748.00
2017-12-14T11:11:07.008Z,608.00
2017-12-14T11:12:06.987Z,624.00
2017-12-14T11:13:06.971Z,772.00
2017-12-14T11:14:06.941Z,712.00
2017-12-14T11:15:06.933Z,644.00
2017-12-14T11:16:06.907Z,620.00
2017-12-14T11:17:06.876Z,708.00
2017-12-14T11:18:06.845Z,868.00
2017-12-14T11:19:06.823Z,812.00
2017-12-14T11:20:06.797Z,816.00
2017-12-14T11:21:06.797Z,600.00
2017-12-14T11:22:06.752Z,520.00
2017-12-14T11:23:06.738Z,548.00
2017-12-14T11:24:06.722Z,552.00
2017-12-14T11:25:06.681Z,460.00
2017-12-14T11:26:06.664Z,560.00
2017-12-14T11:27:06.687Z,644.00
2017-12-14T11:28:06.611Z,696.00
2017-12-14T11:29:06.590Z,584.00
2017-12-14T11:30:06.563Z,552.00
2017-12-14T11:31:06.540Z,548.00
2017-12-14T11:32:06.520Z,596.00
2017-12-14T11:33:06.496Z,612.00
2017-12-14T11:34:06.473Z,612.00
2017-12-14T11:35:06.443Z,588.00
2017-12-14T11:36:06.420Z,624.00
2017-12-14T11:37:06.395Z,788.00
2017-12-14T11:38:06.372Z,996.00
2017-12-14T11:39:06.349Z,960.00
2017-12-14T11:40:06.333Z,824.00
2017-12-14T11:41:06.303Z,972.00
2017-12-14T11:42:06.282Z,1344.00
2017-12-14T11:43:06.263Z,1688.00
2017-12-14T11:44:06.235Z,1860.00
2017-12-14T11:45:06.209Z,1348.00
2017-12-14T11:46:06.181Z,988.00
2017-12-14T11:47:06.160Z,556.00
2017-12-14T11:48:06.133Z,524.00
2017-12-14T11:49:06.206Z,488.00
2017-12-14T11:50:06.089Z,616.00
2017-12-14T11:51:06.063Z,480.00
2017-12-14T11:52:06.044Z,528.00
2017-12-14T11:53:06.019Z,480.00
2017-12-14T11:54:05.991Z,488.00
2017-12-14T11:55:05.979Z,568.00
2017-12-14T11:56:05.942Z,724.00
2017-12-14T11:57:06.056Z,864.00
2017-12-14T11:58:05.897Z,892.00
2017-12-14T11:59:05.871Z,872.00
2017-12-14T12:00:05.929Z,728.00
2017-12-14T12:01:05.828Z,744.00
2017-12-14T12:02:05.806Z,812.00
2017-12-14T12:03:05.786Z,804.00
2017-12-14T12:04:05.758Z,828.00
2017-12-14T12:05:05.737Z,948.00
2017-12-14T12:06:05.704Z,1160.00
2017-12-14T12:07:05.680Z,1232.00
2017-12-14T12:08:05.680Z,1256.00
2017-12-14T12:09:05.636Z,1364.00
2017-12-14T12:10:05.616Z,1352.00
2017-12-14T12:11:05.586Z,1204.00
2017-12-14T12:12:05.565Z,1132.00
2017-12-14T12:13:05.536Z,896.00
2017-12-14T12:14:05.514Z,720.00
2017-12-14T12:15:05.493Z,636.00
2017-12-14T12:16:05.477Z,616.00
2017-12-14T12:17:05.444Z,640.00
2017-12-14T12:18:05.430Z,768.00
2017-12-14T12:19:05.413Z,816.00
2017-12-14T12:20:05.375Z,700.00
2017-12-14T12:21:05.353Z,784.00
2017-12-14T12:22:05.437Z,932.00
2017-12-14T12:23:05.309Z,1312.00
2017-12-14T12:24:05.277Z,1820.00
2017-12-14T12:25:05.321Z,1748.00
2017-12-14T12:26:05.233Z,1372.00
2017-12-14T12:27:05.214Z,1060.00
2017-12-14T12:28:05.184Z,1448.00
2017-12-14T12:29:05.159Z,1880.00
2017-12-14T12:30:05.135Z,2236.00
2017-12-14T12:31:05.116Z,2792.00
2017-12-14T12:32:05.089Z,2492.00
2017-12-14T12:33:05.064Z,2164.00
2017-12-14T12:34:05.042Z,2116.00
2017-12-14T12:35:05.016Z,2204.00
2017-12-14T12:36:04.993Z,1776.00
2017-12-14T12:37:04.971Z,1592.00
2017-12-14T12:38:04.957Z,1620.00
2017-12-14T12:39:04.923Z,2060.00
2017-12-14T12:40:04.900Z,2256.00
2017-12-14T12:41:04.884Z,2396.00
2017-12-14T12:42:04.854Z,2096.00
2017-12-14T12:43:04.830Z,1968.00
2017-12-14T12:44:04.805Z,2708.00
2017-12-14T12:45:04.786Z,2600.00
2017-12-14T12:46:04.760Z,2092.00
2017-12-14T12:47:04.740Z,2132.00
2017-12-14T12:48:04.714Z,2760.00
2017-12-14T12:49:04.691Z,1616.00
2017-12-14T12:50:04.672Z,956.00
2017-12-14T12:51:04.642Z,1344.00